Wayzata, MN (55391)

1:34 PM CST on December 08, 2016 (GMT -0600)
Kraetz Lake | | Change Station

Elev 982 ft 45.00 °N, 93.50 °W | Updated 10 seconds ago

Overcast
Overcast
22.0 °F
Feels Like 22 °F
N
2.2
Wind Variable Wind from WSW
Gusts 4.7 mph

Today
High -- | Low -- °F
--% Chance of Precip.
Yesterday
High -- | Low -- °F
Precip. -- in
Pressure 30.43 in
Visibility 7.0 miles
Clouds Overcast 2600 ft
Windchill 22 °F
Dew Point 15 °F
Humidity 74%
Rainfall 0.00 in
Snow Depth Not available.
7:39 AM 4:32 PM
Waxing Gibbous, 66% visible
METAR KFCM 081853Z 30014G22KT 7SM -SN OVC026 M04/M11 A3037 RMK AO2 SNB23 SLP302 P0000 T10441106
Pressure 30.43 in
Visibility 7.0 miles
Clouds Overcast 2600 ft
Windchill 22 °F
Dew Point 15 °F
Humidity 74%
Rainfall 0.00 in
Snow Depth Not available.
7:39 AM 4:32 PM
Waxing Gibbous, 66% visible
METAR KFCM 081853Z 30014G22KT 7SM -SN OVC026 M04/M11 A3037 RMK AO2 SNB23 SLP302 P0000 T10441106

10-Day Weather Forecast

Almanac

Astronomy

Dec. 08, 2016 Rise Set
Actual Time
Civil Twilight
Nautical Twilight
Astronomical Twilight
Moon
Length of Visible Light
Length of Day
Tomorrow will be .
, % of the Moon is Illuminated

Today's Extremes

State Highs State Lows

Community

WunderPhotos

Upload Photos

1,956,277 photos uploaded!

WunderBlog® & News

Nearby

Air Quality

  Air Quality AQ Index Pollutant
Not available.

Snow Depth

Station Depth Elevation

Earthquake Activity

City Distance Mag. Time & Date
Minimum magnitude displayed is 2.5.

Coastal Water Temperatures

Place Temperature

Stations

Nearby Weather Stations

Station Location Temp. Windchill Dew Point Humidity Wind Precip. Elev Updated Type
                   

Watches & Warnings

There are currently no watches in effect.